Time;durP1;ratioP1;P1;durP2;ratioP2;P2;SDS_P1;SDS_P2;PMS_P1;PMS_P2;Temp;Humidity;BMP_temperature;BMP_pressure;BME280_temperature;BME280_humidity;BME280_pressure;Samples;Min_cycle;Max_cycle;Signal;HPM_P1;HPM_P2
2021/05/22 00:01:09;;;;;;;57.13;2.30;;;11.40;1.00;;;;;;5134587;27;20497;-67
2021/05/22 00:03:35;;;;;;;57.37;2.20;;;11.40;1.00;;;;;;5133914;27;20487;-65
2021/05/22 00:06:02;;;;;;;57.30;2.10;;;11.40;1.00;;;;;;5134389;27;20920;-66
2021/05/22 00:08:28;;;;;;;57.17;2.33;;;11.40;1.00;;;;;;5134615;27;20540;-65
2021/05/22 00:10:54;;;;;;;57.03;2.20;;;11.40;1.00;;;;;;5133390;27;20482;-66
2021/05/22 00:13:21;;;;;;;57.20;2.20;;;11.40;1.00;;;;;;5134044;27;20960;-66
2021/05/22 00:15:47;;;;;;;57.37;2.30;;;11.40;1.00;;;;;;5133908;27;20530;-66
2021/05/22 00:18:15;;;;;;;57.40;2.63;;;11.40;1.00;;;;;;5133998;27;20552;-67
2021/05/22 00:20:41;;;;;;;57.47;2.20;;;11.40;1.00;;;;;;5134103;27;20441;-67
2021/05/22 00:23:10;;;;;;;57.27;2.40;;;11.40;1.00;;;;;;5133792;27;20557;-66
2021/05/22 00:25:36;;;;;;;57.23;2.20;;;11.40;1.00;;;;;;5133901;27;20547;-66
2021/05/22 00:28:03;;;;;;;57.23;2.20;;;11.40;1.00;;;;;;5133849;27;20483;-67
2021/05/22 00:30:30;;;;;;;57.23;2.27;;;11.40;1.00;;;;;;5133899;27;20479;-66
2021/05/22 00:32:56;;;;;;;57.37;2.17;;;11.40;1.00;;;;;;5133342;27;20472;-66
2021/05/22 00:35:23;;;;;;;57.07;2.20;;;11.40;1.00;;;;;;5133735;27;20493;-66
2021/05/22 00:37:50;;;;;;;57.07;2.20;;;11.40;1.00;;;;;;5133983;27;20528;-67
2021/05/22 00:40:16;;;;;;;57.30;2.27;;;11.40;1.00;;;;;;5133970;27;20533;-66
2021/05/22 00:42:44;;;;;;;57.47;2.30;;;11.30;1.00;;;;;;5133594;27;20464;-66
2021/05/22 00:45:13;;;;;;;57.27;2.30;;;11.30;1.00;;;;;;5133262;27;20546;-66
2021/05/22 00:47:41;;;;;;;57.43;2.20;;;11.30;1.00;;;;;;5133499;27;20487;-66
2021/05/22 00:50:10;;;;;;;57.30;2.27;;;11.30;1.00;;;;;;5133358;27;21058;-66
2021/05/22 00:52:38;;;;;;;57.33;2.20;;;11.30;1.00;;;;;;5133099;27;20474;-66
2021/05/22 00:55:05;;;;;;;57.17;2.33;;;11.30;1.00;;;;;;5133241;27;20476;-66
2021/05/22 00:57:32;;;;;;;57.27;2.07;;;11.30;1.00;;;;;;5133636;27;20527;-66
2021/05/22 00:59:59;;;;;;;57.20;2.20;;;11.30;1.00;;;;;;5133168;27;20896;-66
2021/05/22 01:02:27;;;;;;;57.03;2.23;;;11.20;1.00;;;;;;5132924;27;20559;-66
2021/05/22 01:04:55;;;;;;;57.17;2.23;;;11.20;1.00;;;;;;5133459;27;20475;-66
2021/05/22 01:07:22;;;;;;;57.23;2.20;;;11.20;1.00;;;;;;5133375;27;20478;-66
2021/05/22 01:09:51;;;;;;;57.27;2.30;;;11.10;1.00;;;;;;5133221;27;20820;-67
2021/05/22 01:12:23;;;;;;;57.37;2.20;;;11.10;1.00;;;;;;5132636;27;20460;-67
2021/05/22 01:14:54;;;;;;;57.27;2.23;;;11.00;1.00;;;;;;5132947;27;20500;-67
2021/05/22 01:17:21;;;;;;;57.33;2.30;;;11.00;1.00;;;;;;5133429;27;20917;-67
2021/05/22 01:19:55;;;;;;;57.13;2.20;;;10.90;1.00;;;;;;5133236;27;20475;-66
2021/05/22 01:22:21;;;;;;;57.07;2.20;;;10.90;1.00;;;;;;5132383;27;20832;-67
2021/05/22 01:24:54;;;;;;;57.30;2.30;;;10.90;1.00;;;;;;5132722;27;20518;-66
2021/05/22 01:27:21;;;;;;;57.17;2.03;;;10.90;1.00;;;;;;5133328;27;20484;-66
2021/05/22 01:29:47;;;;;;;57.27;2.27;;;10.90;1.00;;;;;;5133022;27;20468;-66
2021/05/22 01:32:14;;;;;;;57.60;2.30;;;10.90;1.00;;;;;;5132655;27;20993;-66
2021/05/22 01:34:41;;;;;;;56.97;2.23;;;10.90;1.00;;;;;;5132881;27;20504;-66
2021/05/22 01:37:07;;;;;;;57.40;2.43;;;10.90;1.00;;;;;;5132838;27;20867;-67
2021/05/22 01:39:33;;;;;;;57.17;2.33;;;10.90;1.00;;;;;;5132663;27;20454;-66
2021/05/22 01:42:00;;;;;;;57.17;2.20;;;10.90;1.00;;;;;;5132621;27;20721;-66
2021/05/22 01:44:31;;;;;;;57.37;2.30;;;10.90;1.00;;;;;;5132943;27;20451;-65
2021/05/22 01:46:59;;;;;;;57.20;2.27;;;10.90;1.00;;;;;;5132302;27;21106;-66
2021/05/22 01:49:26;;;;;;;57.20;2.10;;;10.90;1.00;;;;;;5132713;27;20879;-66
2021/05/22 01:51:54;;;;;;;57.23;2.30;;;10.90;1.00;;;;;;5132386;27;20546;-66
2021/05/22 01:54:21;;;;;;;57.17;2.20;;;10.90;1.00;;;;;;5132648;27;20887;-65
2021/05/22 01:56:49;;;;;;;57.23;2.23;;;10.90;1.00;;;;;;5132652;27;20513;-66
2021/05/22 01:59:16;;;;;;;57.37;2.13;;;10.90;1.00;;;;;;5132747;27;20496;-66
2021/05/22 02:01:47;;;;;;;57.37;2.40;;;10.90;1.00;;;;;;5132604;27;20987;-66
2021/05/22 02:04:15;;;;;;;57.07;2.23;;;10.90;1.00;;;;;;5132015;27;20606;-67
2021/05/22 02:06:45;;;;;;;57.13;2.20;;;10.70;1.00;;;;;;5132211;27;20918;-67
2021/05/22 02:09:14;;;;;;;57.27;2.47;;;10.60;1.00;;;;;;5132885;27;20523;-66
2021/05/22 02:11:43;;;;;;;57.27;2.37;;;10.30;1.00;;;;;;5132610;27;20852;-66
2021/05/22 02:14:12;;;;;;;57.27;2.33;;;10.10;1.00;;;;;;5131818;27;20979;-67
2021/05/22 02:16:46;;;;;;;57.37;2.40;;;9.90;1.00;;;;;;5132315;27;20474;-67
2021/05/22 02:19:15;;;;;;;57.50;2.50;;;9.80;1.00;;;;;;5132327;27;20457;-66
2021/05/22 02:21:44;;;;;;;57.40;2.40;;;9.70;1.00;;;;;;5132436;27;20574;-66
2021/05/22 02:24:12;;;;;;;57.57;2.50;;;9.60;1.00;;;;;;5131772;27;20455;-66
2021/05/22 02:26:40;;;;;;;57.37;2.37;;;9.50;1.00;;;;;;5132162;27;20569;-66
2021/05/22 02:29:10;;;;;;;57.37;2.47;;;9.50;1.00;;;;;;5132205;27;20939;-66
2021/05/22 02:31:40;;;;;;;57.47;2.43;;;9.40;1.00;;;;;;5132118;27;20551;-66
2021/05/22 02:34:08;;;;;;;58.00;2.93;;;9.40;1.00;;;;;;5134203;27;20517;-66
2021/05/22 02:36:37;;;;;;;57.40;2.40;;;9.30;1.00;;;;;;5136282;27;20502;-66
2021/05/22 02:39:06;;;;;;;57.53;2.43;;;9.30;1.00;;;;;;5135823;27;20449;-67
2021/05/22 02:41:35;;;;;;;57.57;2.47;;;9.30;1.00;;;;;;5136063;27;20551;-67
2021/05/22 02:44:03;;;;;;;57.43;2.50;;;9.30;1.00;;;;;;5135283;27;20445;-67
2021/05/22 02:46:35;;;;;;;57.47;2.53;;;9.20;1.00;;;;;;5135725;27;20486;-67
2021/05/22 02:49:02;;;;;;;57.60;2.33;;;9.20;1.00;;;;;;5135848;27;20461;-67
2021/05/22 02:51:30;;;;;;;57.37;2.60;;;9.10;1.00;;;;;;5135886;27;20499;-67
2021/05/22 02:53:59;;;;;;;57.40;2.60;;;9.00;1.00;;;;;;5135117;27;20961;-67
2021/05/22 02:56:26;;;;;;;57.43;2.40;;;8.90;1.00;;;;;;5135635;27;20555;-67
2021/05/22 02:58:54;;;;;;;57.57;2.40;;;8.90;1.00;;;;;;5136137;27;20448;-66
2021/05/22 03:01:21;;;;;;;57.70;2.50;;;8.90;1.00;;;;;;5135638;27;20469;-66
2021/05/22 03:03:48;;;;;;;57.37;2.33;;;8.80;1.00;;;;;;5135227;27;20440;-66
2021/05/22 03:06:14;;;;;;;57.67;2.45;;;8.80;1.00;;;;;;5135455;27;20453;-66
2021/05/22 03:08:46;;;;;;;57.78;2.70;;;8.70;1.00;;;;;;5135425;27;20209;-67
2021/05/22 03:11:13;;;;;;;57.77;2.17;;;8.70;1.00;;;;;;5135256;27;20219;-66
2021/05/22 03:13:39;;;;;;;57.57;2.33;;;8.60;1.00;;;;;;5134753;27;20450;-67
2021/05/22 03:16:06;;;;;;;57.77;2.37;;;8.60;1.00;;;;;;5135431;27;20540;-67
2021/05/22 03:18:33;;;;;;;57.57;2.40;;;8.70;1.00;;;;;;5135225;27;20441;-66
2021/05/22 03:20:59;;;;;;;57.55;2.50;;;8.70;1.00;;;;;;5135250;27;20452;-67
2021/05/22 03:23:26;;;;;;;57.73;2.40;;;8.70;1.00;;;;;;5134659;27;20295;-67
2021/05/22 03:25:53;;;;;;;57.43;2.50;;;8.70;1.00;;;;;;5135158;27;20873;-66
2021/05/22 03:28:20;;;;;;;57.57;2.40;;;8.70;1.00;;;;;;5135319;27;20571;-67
2021/05/22 03:30:47;;;;;;;57.60;2.60;;;8.70;1.00;;;;;;5135129;27;20533;-65
2021/05/22 03:33:13;;;;;;;57.57;2.60;;;8.70;1.00;;;;;;5134759;27;20528;-66
2021/05/22 03:35:40;;;;;;;57.47;2.60;;;8.80;1.00;;;;;;5134788;27;20536;-66
2021/05/22 03:38:06;;;;;;;57.67;2.43;;;8.80;1.00;;;;;;5134987;27;20493;-67
2021/05/22 03:40:33;;;;;;;57.58;2.28;;;8.80;1.00;;;;;;5135157;27;20952;-67
2021/05/22 03:43:00;;;;;;;57.50;2.40;;;8.80;1.00;;;;;;5134609;27;20311;-66
2021/05/22 03:45:26;;;;;;;57.47;2.47;;;8.80;1.00;;;;;;5134641;27;20537;-67
2021/05/22 03:47:53;;;;;;;57.23;2.40;;;8.80;1.00;;;;;;5134605;27;21037;-66
2021/05/22 03:50:19;;;;;;;57.37;2.47;;;8.90;1.00;;;;;;5134743;27;20947;-65
2021/05/22 03:52:46;;;;;;;57.50;2.50;;;8.90;1.00;;;;;;5134119;27;20545;-67
2021/05/22 03:55:13;;;;;;;57.53;2.50;;;8.90;1.00;;;;;;5134386;27;21003;-67
2021/05/22 03:57:40;;;;;;;57.33;2.30;;;8.90;1.00;;;;;;5134670;27;20685;-66
2021/05/22 04:00:09;;;;;;;57.27;2.50;;;8.90;1.00;;;;;;5134349;27;20977;-67
2021/05/22 04:02:36;;;;;;;57.27;2.47;;;8.90;1.00;;;;;;5134140;27;20472;-66
2021/05/22 04:05:03;;;;;;;57.50;2.90;;;9.00;1.00;;;;;;5134301;27;20454;-66
2021/05/22 04:07:30;;;;;;;57.47;2.53;;;9.00;1.00;;;;;;5134367;27;20477;-66
2021/05/22 04:09:56;;;;;;;57.27;2.50;;;9.10;1.00;;;;;;5134125;27;20516;-66
2021/05/22 04:12:22;;;;;;;57.57;2.80;;;9.10;1.00;;;;;;5133962;27;20503;-67
2021/05/22 04:14:49;;;;;;;57.50;2.47;;;9.10;1.00;;;;;;5134199;27;20452;-66
2021/05/22 04:17:16;;;;;;;57.17;2.33;;;9.20;1.00;;;;;;5134210;27;20456;-66
2021/05/22 04:19:42;;;;;;;57.50;2.70;;;9.20;1.00;;;;;;5134051;27;20899;-67
2021/05/22 04:22:08;;;;;;;57.17;2.40;;;9.20;1.00;;;;;;5133611;27;20916;-66
2021/05/22 04:24:35;;;;;;;57.03;2.33;;;9.30;1.00;;;;;;5134074;27;20526;-66
2021/05/22 04:27:01;;;;;;;57.57;2.33;;;9.30;1.00;;;;;;5134146;27;20475;-67
2021/05/22 04:29:28;;;;;;;57.33;2.50;;;9.30;1.00;;;;;;5133872;27;20958;-67
2021/05/22 04:31:54;;;;;;;57.07;2.20;;;9.30;1.00;;;;;;5133378;27;20497;-67
2021/05/22 04:34:21;;;;;;;57.33;2.40;;;9.40;1.00;;;;;;5133570;27;20503;-66
2021/05/22 04:36:48;;;;;;;57.40;2.40;;;9.40;1.00;;;;;;5133777;27;20446;-67
2021/05/22 04:39:14;;;;;;;57.27;2.30;;;9.40;1.00;;;;;;5133901;27;20439;-67
2021/05/22 04:41:40;;;;;;;57.07;2.30;;;9.50;1.00;;;;;;5133795;27;20553;-67
2021/05/22 04:44:07;;;;;;;57.33;2.40;;;9.50;1.00;;;;;;5133049;27;20587;-66
2021/05/22 04:46:34;;;;;;;57.40;2.40;;;9.50;1.00;;;;;;5133288;27;20550;-67
2021/05/22 04:49:00;;;;;;;57.20;2.20;;;9.40;1.00;;;;;;5133390;27;20443;-67
2021/05/22 04:51:27;;;;;;;57.40;2.30;;;9.40;1.00;;;;;;5133675;27;20557;-67
2021/05/22 04:54:02;;;;;;;57.17;2.20;;;9.40;1.00;;;;;;5132940;27;20486;-66
2021/05/22 04:56:28;;;;;;;57.27;2.40;;;9.30;1.00;;;;;;5132728;27;20533;-66
2021/05/22 04:58:54;;;;;;;57.17;2.30;;;9.30;1.00;;;;;;5133295;27;20452;-66
2021/05/22 05:01:21;;;;;;;57.30;2.27;;;9.20;1.00;;;;;;5133417;27;20810;-67
2021/05/22 05:03:47;;;;;;;57.23;2.30;;;9.20;1.00;;;;;;5132808;27;21038;-66
2021/05/22 05:06:13;;;;;;;57.23;2.30;;;9.20;1.00;;;;;;5133186;27;20491;-65
2021/05/22 05:08:41;;;;;;;57.23;2.20;;;9.20;1.00;;;;;;5133193;27;20484;-66
2021/05/22 05:11:07;;;;;;;57.40;2.40;;;9.20;1.00;;;;;;5133439;27;20442;-66
2021/05/22 05:13:34;;;;;;;57.17;2.20;;;9.30;1.00;;;;;;5133027;27;20483;-66
2021/05/22 05:16:00;;;;;;;57.13;2.30;;;9.30;1.00;;;;;;5132952;27;20573;-66
2021/05/22 05:18:26;;;;;;;57.17;2.20;;;9.50;1.00;;;;;;5133065;27;20925;-66
2021/05/22 05:20:53;;;;;;;57.13;2.30;;;9.60;1.00;;;;;;5133191;27;20526;-66
2021/05/22 05:23:19;;;;;;;57.03;2.30;;;9.70;1.00;;;;;;5132867;27;20475;-66
2021/05/22 05:25:46;;;;;;;57.27;2.03;;;9.70;1.00;;;;;;5132736;27;20446;-65
2021/05/22 05:28:13;;;;;;;57.07;2.40;;;9.60;1.00;;;;;;5132868;27;20483;-65
2021/05/22 05:30:39;;;;;;;57.03;2.20;;;9.60;1.00;;;;;;5132784;27;20536;-66
2021/05/22 05:33:05;;;;;;;57.13;2.37;;;9.60;1.00;;;;;;5132674;27;20912;-66
2021/05/22 05:35:32;;;;;;;57.20;2.40;;;9.60;1.00;;;;;;5132659;27;20439;-65
2021/05/22 05:37:58;;;;;;;57.30;2.40;;;9.60;1.00;;;;;;5132636;27;20523;-66
2021/05/22 05:40:25;;;;;;;57.13;2.30;;;9.70;1.00;;;;;;5132742;27;20452;-65
2021/05/22 05:42:52;;;;;;;57.20;2.40;;;9.80;1.00;;;;;;5132523;27;20844;-65
2021/05/22 05:45:18;;;;;;;57.20;2.30;;;9.90;1.00;;;;;;5132814;27;20453;-65
2021/05/22 05:47:44;;;;;;;56.97;2.40;;;10.00;1.00;;;;;;5132616;27;20491;-66
2021/05/22 05:50:12;;;;;;;57.30;2.30;;;10.10;1.00;;;;;;5132727;27;20477;-66
2021/05/22 05:52:38;;;;;;;57.27;2.50;;;10.20;1.00;;;;;;5132291;27;20471;-66
2021/05/22 05:55:05;;;;;;;57.27;2.30;;;10.30;1.00;;;;;;5132227;27;20513;-65
2021/05/22 05:57:32;;;;;;;57.27;2.27;;;10.40;1.00;;;;;;5132617;27;20435;-66
2021/05/22 06:00:00;;;;;;;56.87;2.30;;;10.40;1.00;;;;;;5132490;27;20445;-66
2021/05/22 06:02:26;;;;;;;57.23;2.30;;;10.40;1.00;;;;;;5132360;27;20471;-66
2021/05/22 06:04:54;;;;;;;57.17;2.50;;;10.50;1.00;;;;;;5132377;27;20530;-66
2021/05/22 06:07:21;;;;;;;57.40;2.70;;;10.50;1.00;;;;;;5132416;27;20683;-65
2021/05/22 06:09:47;;;;;;;57.43;2.30;;;10.50;1.00;;;;;;5136385;27;20498;-66
2021/05/22 06:12:13;;;;;;;57.17;2.50;;;10.50;1.00;;;;;;5136076;27;20996;-66
2021/05/22 06:14:43;;;;;;;56.97;2.30;;;10.60;1.00;;;;;;5136386;27;21035;-66
2021/05/22 06:17:10;;;;;;;57.20;2.30;;;10.50;1.00;;;;;;5136559;27;20531;-66
2021/05/22 06:19:37;;;;;;;57.90;2.40;;;10.50;1.00;;;;;;5136478;27;20443;-66
2021/05/22 06:22:04;;;;;;;57.07;2.23;;;10.50;1.00;;;;;;5135973;27;20513;-66
2021/05/22 06:24:30;;;;;;;57.20;2.20;;;10.50;1.00;;;;;;5136200;27;20475;-66
2021/05/22 06:26:57;;;;;;;57.03;2.20;;;10.50;1.00;;;;;;5136135;27;20570;-65
2021/05/22 06:29:23;;;;;;;57.17;2.20;;;10.50;1.00;;;;;;5136311;27;20455;-66
2021/05/22 06:31:50;;;;;;;57.27;2.10;;;10.50;1.00;;;;;;5135975;27;20463;-65
2021/05/22 06:34:18;;;;;;;57.27;2.23;;;10.50;1.00;;;;;;5136376;27;20534;-66
2021/05/22 06:36:44;;;;;;;57.17;2.30;;;10.60;1.00;;;;;;5136216;27;20447;-66
2021/05/22 06:39:10;;;;;;;57.30;2.37;;;10.80;1.00;;;;;;5136043;27;20472;-66
2021/05/22 06:41:37;;;;;;;56.97;2.17;;;11.00;1.00;;;;;;5135945;27;20542;-66
2021/05/22 06:44:05;;;;;;;56.93;2.20;;;11.30;1.00;;;;;;5135672;27;20531;-66
2021/05/22 06:46:49;;;;;;;57.17;2.40;;;11.50;1.00;;;;;;5135842;27;20463;-66
2021/05/22 06:49:18;;;;;;;57.37;2.60;;;11.70;1.00;;;;;;5136025;27;20476;-66
2021/05/22 06:51:45;;;;;;;57.10;2.23;;;11.80;1.00;;;;;;5135877;27;20472;-66
2021/05/22 06:54:11;;;;;;;57.07;2.20;;;11.90;1.00;;;;;;5135208;27;20450;-66
2021/05/22 06:56:37;;;;;;;56.97;2.20;;;12.10;1.00;;;;;;5136039;27;20436;-66
2021/05/22 06:59:04;;;;;;;57.17;2.20;;;12.10;1.00;;;;;;5135842;27;20444;-66
2021/05/22 07:01:31;;;;;;;57.60;2.30;;;12.20;1.00;;;;;;5136001;27;20472;-65
2021/05/22 07:03:57;;;;;;;57.30;2.40;;;12.30;1.00;;;;;;5135277;27;21046;-66
2021/05/22 07:06:25;;;;;;;56.97;2.20;;;12.50;1.00;;;;;;5135532;27;20845;-66
2021/05/22 07:08:54;;;;;;;57.27;2.13;;;12.70;1.00;;;;;;5135380;27;20564;-65
2021/05/22 07:11:21;;;;;;;56.97;2.10;;;12.90;1.00;;;;;;5135526;27;20468;-66
2021/05/22 07:13:48;;;;;;;56.83;2.20;;;13.00;1.00;;;;;;5135022;27;20504;-66
2021/05/22 07:16:14;;;;;;;57.17;2.40;;;13.10;1.00;;;;;;5135503;27;20578;-66
2021/05/22 07:18:40;;;;;;;57.13;2.30;;;13.10;1.00;;;;;;5134887;27;20433;-65
2021/05/22 07:21:07;;;;;;;57.20;2.30;;;13.10;1.00;;;;;;5135208;27;20535;-66
2021/05/22 07:23:34;;;;;;;57.20;2.30;;;13.20;1.00;;;;;;5135124;27;20504;-66
2021/05/22 07:26:02;;;;;;;56.97;2.10;;;13.20;1.00;;;;;;5135324;27;20531;-66
2021/05/22 07:28:30;;;;;;;57.40;2.10;;;13.20;1.00;;;;;;5135006;27;20480;-66
2021/05/22 07:30:59;;;;;;;57.50;2.30;;;13.20;1.00;;;;;;5135044;27;20960;-65
2021/05/22 07:33:25;;;;;;;56.93;2.20;;;13.40;1.00;;;;;;5134533;27;20455;-65
2021/05/22 07:35:52;;;;;;;58.97;2.97;;;13.50;1.00;;;;;;5134632;27;20535;-66
2021/05/22 07:38:18;;;;;;;57.27;2.50;;;13.60;1.00;;;;;;5134568;27;20444;-66
2021/05/22 07:40:46;;;;;;;57.37;2.30;;;13.90;1.00;;;;;;5135158;27;20818;-67
2021/05/22 07:43:12;;;;;;;57.33;2.30;;;14.10;1.00;;;;;;5134715;27;20905;-66
2021/05/22 07:45:38;;;;;;;57.30;2.30;;;14.10;1.00;;;;;;5134688;27;20535;-66
2021/05/22 07:48:05;;;;;;;57.20;2.20;;;14.10;1.00;;;;;;5134749;27;20567;-66
2021/05/22 07:50:32;;;;;;;57.30;2.30;;;14.20;1.00;;;;;;5134922;27;20876;-66
2021/05/22 07:52:58;;;;;;;57.13;2.20;;;14.20;1.00;;;;;;5134603;27;20476;-66
2021/05/22 07:55:25;;;;;;;57.50;2.30;;;14.20;1.00;;;;;;5134527;27;20489;-66
2021/05/22 07:57:52;;;;;;;56.77;2.13;;;14.30;1.00;;;;;;5134646;27;20535;-67
2021/05/22 08:00:20;;;;;;;56.97;2.00;;;14.40;1.00;;;;;;5134735;27;20531;-65
2021/05/22 08:02:46;;;;;;;56.97;2.17;;;14.30;1.00;;;;;;5134136;27;20551;-65
2021/05/22 08:05:13;;;;;;;57.17;2.30;;;14.30;1.00;;;;;;5134463;27;20493;-67
2021/05/22 08:07:40;;;;;;;57.10;2.10;;;14.30;1.00;;;;;;5134386;27;20476;-65
2021/05/22 08:10:08;;;;;;;57.17;2.07;;;14.40;1.00;;;;;;5134523;27;20891;-66
2021/05/22 08:12:35;;;;;;;57.07;2.13;;;14.30;1.00;;;;;;5133942;27;20461;-66
2021/05/22 08:15:04;;;;;;;57.10;1.90;;;14.20;1.00;;;;;;5134097;27;20478;-65
2021/05/22 08:17:30;;;;;;;57.10;2.20;;;14.00;1.00;;;;;;5134300;27;20541;-66
2021/05/22 08:19:57;;;;;;;57.20;2.13;;;13.80;1.00;;;;;;5134333;27;21007;-66
2021/05/22 08:22:23;;;;;;;57.07;2.20;;;13.80;1.00;;;;;;5133794;27;20496;-66
2021/05/22 08:24:50;;;;;;;56.97;2.20;;;13.80;1.00;;;;;;5133846;27;20532;-66
2021/05/22 08:27:18;;;;;;;57.20;2.10;;;13.80;1.00;;;;;;5134018;27;20479;-65
2021/05/22 08:29:45;;;;;;;57.07;2.20;;;13.90;1.00;;;;;;5133874;27;20459;-66
2021/05/22 08:32:12;;;;;;;56.90;2.17;;;13.90;1.00;;;;;;5132591;27;21002;-66
2021/05/22 08:34:39;;;;;;;57.17;2.30;;;14.00;1.00;;;;;;5133938;27;20887;-66
2021/05/22 08:37:06;;;;;;;57.07;2.43;;;14.20;1.00;;;;;;5134107;27;20485;-66
2021/05/22 08:39:32;;;;;;;57.30;2.33;;;14.40;1.00;;;;;;5133934;27;20444;-66
2021/05/22 08:42:00;;;;;;;57.07;2.20;;;14.50;1.00;;;;;;5133473;27;20475;-65
2021/05/22 08:44:26;;;;;;;56.87;2.13;;;14.70;1.00;;;;;;5133432;27;20448;-66
2021/05/22 08:46:53;;;;;;;56.80;2.20;;;15.00;1.00;;;;;;5133575;27;20519;-67
2021/05/22 08:49:21;;;;;;;57.07;2.23;;;15.10;1.00;;;;;;5133651;27;21025;-65
2021/05/22 08:51:47;;;;;;;57.10;2.10;;;15.10;1.00;;;;;;5133470;27;20991;-65
2021/05/22 08:54:13;;;;;;;57.00;2.10;;;15.20;1.00;;;;;;5133046;27;20504;-65
2021/05/22 08:56:40;;;;;;;57.10;2.07;;;15.20;1.00;;;;;;5133617;27;20527;-66
2021/05/22 08:59:07;;;;;;;56.97;2.20;;;15.30;1.00;;;;;;5133255;27;20528;-66
2021/05/22 09:01:35;;;;;;;57.80;2.30;;;15.40;1.00;;;;;;5133531;27;20464;-65
2021/05/22 09:04:01;;;;;;;56.97;2.20;;;15.50;1.00;;;;;;5132922;27;20436;-66
2021/05/22 09:06:28;;;;;;;56.77;2.20;;;15.50;1.00;;;;;;5133244;27;20829;-66
2021/05/22 09:09:04;;;;;;;57.03;2.10;;;15.70;1.00;;;;;;5133174;27;20516;-67
2021/05/22 09:11:45;;;;;;;57.00;2.10;;;15.90;1.00;;;;;;5133016;27;20464;-67
2021/05/22 09:14:12;;;;;;;57.07;2.17;;;15.80;1.00;;;;;;5132871;27;20441;-66
2021/05/22 09:16:39;;;;;;;57.30;2.20;;;15.80;1.00;;;;;;5133287;27;20450;-67
2021/05/22 09:19:05;;;;;;;56.90;1.97;;;15.80;1.00;;;;;;5133102;27;20546;-67
2021/05/22 09:21:35;;;;;;;57.20;2.23;;;15.80;1.00;;;;;;5133064;27;20555;-67
2021/05/22 09:24:02;;;;;;;56.93;2.10;;;16.00;1.00;;;;;;5132460;27;20895;-67
2021/05/22 09:26:33;;;;;;;57.30;2.60;;;16.10;1.00;;;;;;5133128;27;20479;-66
2021/05/22 09:29:01;;;;;;;56.67;2.03;;;16.20;1.00;;;;;;5132793;27;20564;-67
2021/05/22 09:31:28;;;;;;;57.10;2.10;;;16.40;1.00;;;;;;5132975;27;20563;-67
2021/05/22 09:33:58;;;;;;;57.20;2.10;;;16.60;1.00;;;;;;5132555;27;20454;-66
2021/05/22 09:36:25;;;;;;;56.80;2.03;;;16.70;1.00;;;;;;5132750;27;20501;-67
2021/05/22 09:38:55;;;;;;;56.67;2.00;;;16.80;1.00;;;;;;5132725;27;20438;-67
2021/05/22 09:41:22;;;;;;;57.03;2.30;;;17.00;1.00;;;;;;5132807;27;20465;-67
2021/05/22 09:44:07;;;;;;;57.03;2.20;;;17.20;1.00;;;;;;5132332;27;20527;-66
2021/05/22 09:46:34;;;;;;;56.97;2.17;;;17.30;1.00;;;;;;5132504;27;20461;-65
2021/05/22 09:49:01;;;;;;;56.93;2.20;;;17.40;1.00;;;;;;5132603;27;20573;-66
2021/05/22 09:51:27;;;;;;;56.87;2.20;;;17.50;1.00;;;;;;5132606;27;21043;-65
2021/05/22 09:53:54;;;;;;;56.43;2.30;;;17.30;1.00;;;;;;5132058;27;20532;-66
2021/05/22 09:56:24;;;;;;;57.27;2.30;;;17.40;1.00;;;;;;5132509;27;20449;-65
2021/05/22 09:58:53;;;;;;;56.70;2.30;;;17.50;1.00;;;;;;5132688;27;20860;-66
2021/05/22 10:01:22;;;;;;;57.27;2.30;;;17.60;1.00;;;;;;5132679;27;20501;-66
2021/05/22 10:03:49;;;;;;;57.03;2.33;;;17.50;1.00;;;;;;5132264;27;20486;-66
2021/05/22 10:06:16;;;;;;;57.10;2.27;;;17.60;1.00;;;;;;5132846;27;20447;-66
2021/05/22 10:08:44;;;;;;;57.00;2.30;;;17.50;1.00;;;;;;5132934;27;20492;-66
2021/05/22 10:11:11;;;;;;;57.07;2.13;;;17.70;1.00;;;;;;5132789;27;20466;-66
2021/05/22 10:13:40;;;;;;;56.83;2.10;;;17.70;1.00;;;;;;5132376;27;20451;-66
2021/05/22 10:16:07;;;;;;;57.40;2.20;;;18.20;1.00;;;;;;5132564;27;20539;-66
2021/05/22 10:18:34;;;;;;;56.97;2.10;;;19.20;1.00;;;;;;5132528;27;20952;-66
2021/05/22 10:21:03;;;;;;;57.00;2.00;;;20.50;1.00;;;;;;5132720;27;20445;-66
2021/05/22 10:23:30;;;;;;;56.87;2.00;;;21.20;1.00;;;;;;5131914;27;20869;-66
2021/05/22 10:25:57;;;;;;;57.17;2.23;;;21.60;1.00;;;;;;5132519;27;20529;-66
2021/05/22 10:28:26;;;;;;;57.37;2.10;;;21.90;1.00;;;;;;5132091;27;20517;-66
2021/05/22 10:30:53;;;;;;;57.13;2.00;;;22.60;1.00;;;;;;5132172;27;20485;-67
2021/05/22 10:33:19;;;;;;;57.37;2.13;;;22.60;1.00;;;;;;5132071;27;20455;-67
2021/05/22 10:35:47;;;;;;;56.67;2.07;;;22.60;1.00;;;;;;5132157;27;20529;-67
2021/05/22 10:38:38;;;;;;;56.97;2.67;;;22.30;1.00;;;;;;5132399;27;20455;-66
2021/05/22 10:41:08;;;;;;;57.07;2.40;;;;;;;;;;5132040;27;20484;-67
2021/05/22 10:43:51;;;;;;;56.93;2.20;;;22.90;1.00;;;;;;5131680;27;20448;-67
2021/05/22 10:46:17;;;;;;;57.40;2.00;;;23.70;1.00;;;;;;5132265;27;20496;-67
2021/05/22 10:48:57;;;;;;;57.17;2.30;;;23.40;1.00;;;;;;5131977;27;20523;-66
2021/05/22 10:51:33;;;;;;;57.30;2.20;;;22.60;1.00;;;;;;5132023;27;20469;-67
2021/05/22 10:54:00;;;;;;;56.70;2.20;;;21.80;1.00;;;;;;5132346;27;20999;-67
2021/05/22 10:56:27;;;;;;;57.30;2.10;;;21.30;1.00;;;;;;5135938;27;20450;-67
2021/05/22 10:59:14;;;;;;;57.27;2.07;;;20.90;1.00;;;;;;5136167;27;20525;-67
2021/05/22 11:01:44;;;;;;;57.37;2.40;;;20.20;1.00;;;;;;5135787;27;20468;-66
2021/05/22 11:04:33;;;;;;;57.17;2.20;;;19.60;1.00;;;;;;5135012;27;20440;-67
2021/05/22 11:07:02;;;;;;;56.97;2.07;;;19.60;1.00;;;;;;5135646;27;20444;-67
2021/05/22 11:09:51;;;;;;;57.00;2.00;;;20.00;1.00;;;;;;5135555;27;20888;-67
2021/05/22 11:12:49;;;;;;;56.87;2.00;;;20.10;1.00;;;;;;5135340;27;20522;-66
2021/05/22 11:15:51;;;;;;;57.23;2.10;;;20.10;1.00;;;;;;5134642;27;20874;-67
2021/05/22 11:18:20;;;;;;;56.60;2.00;;;20.40;1.00;;;;;;5135561;27;20444;-67
2021/05/22 11:21:13;;;;;;;57.50;2.30;;;20.40;1.00;;;;;;5136025;27;20445;-67
2021/05/22 11:24:12;;;;;;;56.87;2.10;;;21.40;1.00;;;;;;5134916;27;20451;-67
2021/05/22 11:26:57;;;;;;;57.03;2.07;;;23.80;1.00;;;;;;5071691;28;20451;-67
2021/05/22 11:29:45;;;;;;;57.17;2.10;;;24.00;1.00;;;;;;5071539;28;20494;-67
2021/05/22 11:32:44;;;;;;;57.10;2.03;;;23.20;1.00;;;;;;5116412;27;20522;-66
2021/05/22 11:35:38;;;;;;;56.93;2.20;;;22.50;1.00;;;;;;5134804;27;20443;-67
2021/05/22 11:38:27;;;;;;;57.97;2.40;;;23.30;1.00;;;;;;5135249;27;20436;-66
2021/05/22 11:40:55;;;;;;;56.77;1.90;;;23.20;1.00;;;;;;5135005;27;20444;-67
2021/05/22 11:43:29;;;;;;;57.07;1.80;;;22.40;1.00;;;;;;5134443;27;20453;-66
2021/05/22 11:45:58;;;;;;;56.83;2.00;;;21.50;1.00;;;;;;5134552;27;20447;-66
2021/05/22 11:48:26;;;;;;;57.07;2.10;;;21.60;1.00;;;;;;5134686;27;21142;-67
2021/05/22 11:50:54;;;;;;;56.83;2.00;;;22.60;1.00;;;;;;5134824;27;20959;-66
2021/05/22 11:53:21;;;;;;;57.27;2.00;;;23.00;1.00;;;;;;5134426;27;20449;-67
2021/05/22 11:55:55;;;;;;;57.00;2.10;;;23.00;1.00;;;;;;5134485;27;20483;-67
2021/05/22 11:58:22;;;;;;;57.20;2.00;;;22.60;1.00;;;;;;5134964;27;20422;-67
2021/05/22 12:00:48;;;;;;;56.73;1.97;;;21.90;1.00;;;;;;5134872;27;20455;-66
2021/05/22 12:03:23;;;;;;;56.83;2.03;;;21.50;1.00;;;;;;5134253;27;20971;-66
2021/05/22 12:05:50;;;;;;;56.67;1.90;;;21.10;1.00;;;;;;5134333;27;20445;-67
2021/05/22 12:08:18;;;;;;;57.00;2.00;;;21.10;1.00;;;;;;5134327;27;20621;-66
2021/05/22 12:10:44;;;;;;;57.10;2.27;;;21.40;1.00;;;;;;5134247;27;20444;-67
2021/05/22 12:13:11;;;;;;;56.97;1.93;;;21.30;1.00;;;;;;5134264;27;20469;-67
2021/05/22 12:15:40;;;;;;;57.00;2.00;;;21.00;1.00;;;;;;5134126;27;20581;-66
2021/05/22 12:18:08;;;;;;;56.87;2.00;;;21.00;1.00;;;;;;5134419;27;20445;-68
2021/05/22 12:20:45;;;;;;;56.67;1.87;;;22.40;1.00;;;;;;5134349;27;20625;-67
2021/05/22 12:23:28;;;;;;;56.87;1.70;;;23.80;1.00;;;;;;5133636;27;20522;-65
2021/05/22 12:25:55;;;;;;;58.83;2.30;;;25.00;1.00;;;;;;5134158;27;20454;-66
2021/05/22 12:28:22;;;;;;;57.30;2.30;;;25.90;1.00;;;;;;5133943;27;20489;-64
2021/05/22 12:30:51;;;;;;;57.40;2.20;;;25.30;1.00;;;;;;5134074;27;20537;-66
2021/05/22 12:33:18;;;;;;;57.40;2.40;;;24.20;1.00;;;;;;5133646;27;20531;-66
2021/05/22 12:35:46;;;;;;;60.30;2.43;;;23.20;1.00;;;;;;5133630;27;20551;-67
2021/05/22 12:38:13;;;;;;;56.97;2.10;;;22.30;1.00;;;;;;5133592;27;20880;-66
2021/05/22 12:40:47;;;;;;;57.27;2.00;;;21.70;1.00;;;;;;5133990;27;20466;-67
2021/05/22 12:43:15;;;;;;;57.10;1.97;;;21.10;1.00;;;;;;5133334;27;20499;-66
2021/05/22 12:45:43;;;;;;;57.07;1.87;;;21.30;1.00;;;;;;5133323;27;20470;-66
2021/05/22 12:48:23;;;;;;;56.90;2.00;;;22.90;1.00;;;;;;5133341;27;20483;-66
2021/05/22 12:50:49;;;;;;;57.10;1.90;;;23.10;1.00;;;;;;5133878;27;20529;-66
2021/05/22 12:53:28;;;;;;;56.90;2.20;;;22.60;1.00;;;;;;5133369;27;20449;-66
2021/05/22 12:56:04;;;;;;;56.67;2.13;;;21.80;1.00;;;;;;5133302;27;20457;-67
2021/05/22 12:58:31;;;;;;;57.20;1.97;;;21.30;1.00;;;;;;5133272;27;20448;-66